sensor_id;sensor_type;location;lat;lon;timestamp;pressure;altitude;pressure_sealevel;temperature;humidity
28428;BME280;15662;49.128;8.520;2022-08-04T00:01:57;100048.19;;;29.18;39.04
28428;BME280;15662;49.128;8.520;2022-08-04T00:07:37;100053.44;;;29.11;39.15
28428;BME280;15662;49.128;8.520;2022-08-04T00:10:15;100054.78;;;28.99;39.18
28428;BME280;15662;49.128;8.520;2022-08-04T00:12:50;100057.44;;;28.91;39.04
28428;BME280;15662;49.128;8.520;2022-08-04T00:15:18;100048.22;;;28.84;39.49
28428;BME280;15662;49.128;8.520;2022-08-04T00:17:56;100052.47;;;28.78;39.16
28428;BME280;15662;49.128;8.520;2022-08-04T00:20:31;100051.25;;;28.72;39.28
28428;BME280;15662;49.128;8.520;2022-08-04T00:23:00;100057.53;;;28.65;39.38
28428;BME280;15662;49.128;8.520;2022-08-04T00:25:28;100061.28;;;28.64;39.41
28428;BME280;15662;49.128;8.520;2022-08-04T00:27:59;100052.91;;;28.65;39.43
28428;BME280;15662;49.128;8.520;2022-08-04T00:30:27;100056.13;;;28.61;39.60
28428;BME280;15662;49.128;8.520;2022-08-04T00:32:56;100060.75;;;28.60;39.43
28428;BME280;15662;49.128;8.520;2022-08-04T00:35:27;100053.75;;;28.58;39.67
28428;BME280;15662;49.128;8.520;2022-08-04T00:37:56;100059.69;;;28.53;39.64
28428;BME280;15662;49.128;8.520;2022-08-04T00:41:37;100065.63;;;28.48;39.59
28428;BME280;15662;49.128;8.520;2022-08-04T00:50:40;100052.25;;;28.37;39.77
28428;BME280;15662;49.128;8.520;2022-08-04T00:53:36;100064.06;;;28.38;39.95
28428;BME280;15662;49.128;8.520;2022-08-04T01:03:08;100064.38;;;28.17;40.03
28428;BME280;15662;49.128;8.520;2022-08-04T01:12:07;100058.06;;;28.16;39.46
28428;BME280;15662;49.128;8.520;2022-08-04T01:14:46;100061.34;;;28.20;39.44
28428;BME280;15662;49.128;8.520;2022-08-04T01:20:04;100051.59;;;28.35;39.02
28428;BME280;15662;49.128;8.520;2022-08-04T01:29:36;100058.78;;;28.44;38.76
28428;BME280;15662;49.128;8.520;2022-08-04T01:32:33;100057.94;;;28.44;38.93
28428;BME280;15662;49.128;8.520;2022-08-04T01:35:13;100051.41;;;28.37;39.05
28428;BME280;15662;49.128;8.520;2022-08-04T01:38:25;100048.47;;;28.30;39.30
28428;BME280;15662;49.128;8.520;2022-08-04T01:40:59;100049.97;;;28.24;39.12
28428;BME280;15662;49.128;8.520;2022-08-04T01:43:39;100054.22;;;28.27;38.93
28428;BME280;15662;49.128;8.520;2022-08-04T01:46:12;100044.72;;;28.31;38.53
28428;BME280;15662;49.128;8.520;2022-08-04T01:48:44;100041.69;;;28.34;38.35
28428;BME280;15662;49.128;8.520;2022-08-04T01:51:13;100038.97;;;28.34;38.32
28428;BME280;15662;49.128;8.520;2022-08-04T01:53:42;100040.88;;;28.42;38.26
28428;BME280;15662;49.128;8.520;2022-08-04T01:56:11;100044.31;;;28.44;38.08
28428;BME280;15662;49.128;8.520;2022-08-04T01:58:40;100041.25;;;28.47;38.05
28428;BME280;15662;49.128;8.520;2022-08-04T02:01:11;100044.50;;;28.50;37.94
28428;BME280;15662;49.128;8.520;2022-08-04T02:03:44;100045.34;;;28.51;38.46
28428;BME280;15662;49.128;8.520;2022-08-04T02:20:38;100039.91;;;28.25;38.80
28428;BME280;15662;49.128;8.520;2022-08-04T02:23:38;100023.66;;;28.15;38.99
28428;BME280;15662;49.128;8.520;2022-08-04T02:26:17;100035.91;;;28.11;38.96
28428;BME280;15662;49.128;8.520;2022-08-04T02:29:11;100040.13;;;28.06;39.20
28428;BME280;15662;49.128;8.520;2022-08-04T02:32:02;100030.34;;;27.95;39.43
28428;BME280;15662;49.128;8.520;2022-08-04T02:34:59;100041.72;;;27.90;39.36
28428;BME280;15662;49.128;8.520;2022-08-04T02:37:31;100036.91;;;27.84;39.65
28428;BME280;15662;49.128;8.520;2022-08-04T02:40:04;100036.91;;;27.84;39.84
28428;BME280;15662;49.128;8.520;2022-08-04T02:42:34;100034.34;;;27.83;39.62
28428;BME280;15662;49.128;8.520;2022-08-04T02:45:02;100037.06;;;27.83;39.72
28428;BME280;15662;49.128;8.520;2022-08-04T02:47:31;100040.97;;;27.80;39.66
28428;BME280;15662;49.128;8.520;2022-08-04T02:50:20;100042.47;;;27.74;39.63
28428;BME280;15662;49.128;8.520;2022-08-04T02:52:57;100027.41;;;27.70;39.47
28428;BME280;15662;49.128;8.520;2022-08-04T02:55:28;100038.31;;;27.70;39.58
28428;BME280;15662;49.128;8.520;2022-08-04T02:57:57;100045.31;;;27.73;39.74
28428;BME280;15662;49.128;8.520;2022-08-04T03:00:28;100037.44;;;27.70;39.83
28428;BME280;15662;49.128;8.520;2022-08-04T03:03:33;100049.38;;;27.69;39.69
28428;BME280;15662;49.128;8.520;2022-08-04T03:12:32;100038.19;;;27.54;39.94
28428;BME280;15662;49.128;8.520;2022-08-04T03:18:00;100030.78;;;27.46;40.54
28428;BME280;15662;49.128;8.520;2022-08-04T03:42:11;100041.34;;;27.32;40.67
28428;BME280;15662;49.128;8.520;2022-08-04T03:51:11;100049.66;;;27.12;40.73
28428;BME280;15662;49.128;8.520;2022-08-04T04:00:10;100050.13;;;27.08;40.89
28428;BME280;15662;49.128;8.520;2022-08-04T04:35:07;100070.19;;;26.69;42.04
28428;BME280;15662;49.128;8.520;2022-08-04T04:41:04;100066.94;;;26.66;42.16
28428;BME280;15662;49.128;8.520;2022-08-04T04:47:03;100068.66;;;26.67;41.99
28428;BME280;15662;49.128;8.520;2022-08-04T04:49:56;100080.38;;;26.67;42.03
28428;BME280;15662;49.128;8.520;2022-08-04T04:52:44;100082.81;;;26.70;42.13
28428;BME280;15662;49.128;8.520;2022-08-04T04:55:32;100076.34;;;26.71;42.13
28428;BME280;15662;49.128;8.520;2022-08-04T04:58:01;100074.09;;;26.67;42.29
28428;BME280;15662;49.128;8.520;2022-08-04T05:01:07;100084.91;;;26.77;42.27
28428;BME280;15662;49.128;8.520;2022-08-04T05:04:10;100086.78;;;26.76;42.42
28428;BME280;15662;49.128;8.520;2022-08-04T05:10:10;100084.19;;;26.74;42.33
28428;BME280;15662;49.128;8.520;2022-08-04T05:13:13;100088.19;;;26.80;42.53
28428;BME280;15662;49.128;8.520;2022-08-04T05:21:55;100100.16;;;26.87;42.56
28428;BME280;15662;49.128;8.520;2022-08-04T05:24:27;100096.44;;;26.88;42.65
28428;BME280;15662;49.128;8.520;2022-08-04T05:27:37;100092.56;;;26.91;42.61
28428;BME280;15662;49.128;8.520;2022-08-04T05:30:08;100111.84;;;26.97;42.70
28428;BME280;15662;49.128;8.520;2022-08-04T05:32:53;100103.25;;;27.02;42.60
28428;BME280;15662;49.128;8.520;2022-08-04T05:35:48;100118.13;;;27.08;42.82
28428;BME280;15662;49.128;8.520;2022-08-04T05:38:40;100106.78;;;27.12;42.61
28428;BME280;15662;49.128;8.520;2022-08-04T05:41:09;100109.75;;;27.19;42.74
28428;BME280;15662;49.128;8.520;2022-08-04T05:43:38;100100.16;;;27.24;42.59
28428;BME280;15662;49.128;8.520;2022-08-04T05:46:10;100109.66;;;27.11;42.67
28428;BME280;15662;49.128;8.520;2022-08-04T05:48:38;100108.53;;;27.31;42.35
28428;BME280;15662;49.128;8.520;2022-08-04T05:51:09;100105.75;;;27.41;42.29
28428;BME280;15662;49.128;8.520;2022-08-04T05:53:38;100115.84;;;27.48;42.47
28428;BME280;15662;49.128;8.520;2022-08-04T05:56:14;100109.47;;;27.58;42.28
28428;BME280;15662;49.128;8.520;2022-08-04T05:58:44;100118.03;;;27.63;42.03
28428;BME280;15662;49.128;8.520;2022-08-04T06:01:14;100116.28;;;27.71;41.81
28428;BME280;15662;49.128;8.520;2022-08-04T06:03:44;100113.25;;;27.74;41.80
28428;BME280;15662;49.128;8.520;2022-08-04T06:06:14;100113.31;;;27.83;41.50
28428;BME280;15662;49.128;8.520;2022-08-04T06:08:43;100115.28;;;27.90;41.46
28428;BME280;15662;49.128;8.520;2022-08-04T06:11:12;100109.34;;;27.95;41.17
28428;BME280;15662;49.128;8.520;2022-08-04T06:13:53;100111.66;;;28.08;41.11
28428;BME280;15662;49.128;8.520;2022-08-04T06:16:26;100117.47;;;28.13;41.07
28428;BME280;15662;49.128;8.520;2022-08-04T06:19:08;100107.50;;;28.21;40.82
28428;BME280;15662;49.128;8.520;2022-08-04T06:21:57;100106.34;;;28.24;41.00
28428;BME280;15662;49.128;8.520;2022-08-04T06:24:28;100108.50;;;28.38;40.63
28428;BME280;15662;49.128;8.520;2022-08-04T06:26:57;100109.94;;;28.50;40.85
28428;BME280;15662;49.128;8.520;2022-08-04T06:29:26;100109.66;;;28.62;40.54
28428;BME280;15662;49.128;8.520;2022-08-04T06:32:18;100110.25;;;28.73;40.70
28428;BME280;15662;49.128;8.520;2022-08-04T06:35:09;100106.41;;;28.92;40.71
28428;BME280;15662;49.128;8.520;2022-08-04T06:37:38;100116.75;;;29.15;40.31
28428;BME280;15662;49.128;8.520;2022-08-04T06:40:13;100106.25;;;29.36;40.19
28428;BME280;15662;49.128;8.520;2022-08-04T06:43:05;100110.91;;;29.60;40.35
28428;BME280;15662;49.128;8.520;2022-08-04T06:45:37;100110.94;;;29.76;40.03
28428;BME280;15662;49.128;8.520;2022-08-04T06:48:06;100120.16;;;29.92;39.80
28428;BME280;15662;49.128;8.520;2022-08-04T06:50:36;100121.53;;;30.12;39.42
28428;BME280;15662;49.128;8.520;2022-08-04T06:53:26;100116.44;;;30.25;39.34
28428;BME280;15662;49.128;8.520;2022-08-04T06:55:55;100127.31;;;30.42;38.92
28428;BME280;15662;49.128;8.520;2022-08-04T06:58:25;100125.25;;;30.52;38.75
28428;BME280;15662;49.128;8.520;2022-08-04T07:00:55;100124.72;;;30.65;38.78
28428;BME280;15662;49.128;8.520;2022-08-04T07:03:29;100124.88;;;30.79;38.22
28428;BME280;15662;49.128;8.520;2022-08-04T07:05:57;100124.50;;;30.91;38.47
28428;BME280;15662;49.128;8.520;2022-08-04T07:08:34;100130.25;;;31.04;38.24
28428;BME280;15662;49.128;8.520;2022-08-04T07:11:03;100122.69;;;31.14;37.99
28428;BME280;15662;49.128;8.520;2022-08-04T07:13:32;100114.91;;;31.26;37.67
28428;BME280;15662;49.128;8.520;2022-08-04T07:16:00;100121.22;;;31.34;37.38
28428;BME280;15662;49.128;8.520;2022-08-04T07:18:30;100112.94;;;31.43;37.13
28428;BME280;15662;49.128;8.520;2022-08-04T07:20:58;100117.34;;;31.52;36.83
28428;BME280;15662;49.128;8.520;2022-08-04T07:23:27;100111.47;;;31.63;36.61
28428;BME280;15662;49.128;8.520;2022-08-04T07:25:56;100107.25;;;31.75;36.41
28428;BME280;15662;49.128;8.520;2022-08-04T07:28:40;100119.22;;;31.82;36.34
28428;BME280;15662;49.128;8.520;2022-08-04T07:31:16;100110.38;;;31.95;35.98
28428;BME280;15662;49.128;8.520;2022-08-04T07:34:03;100101.78;;;31.98;35.97
28428;BME280;15662;49.128;8.520;2022-08-04T07:36:52;100113.66;;;32.14;35.67
28428;BME280;15662;49.128;8.520;2022-08-04T07:39:25;100120.75;;;32.23;35.32
28428;BME280;15662;49.128;8.520;2022-08-04T07:41:59;100115.00;;;32.32;35.33
28428;BME280;15662;49.128;8.520;2022-08-04T07:44:33;100113.03;;;32.41;35.08
28428;BME280;15662;49.128;8.520;2022-08-04T07:47:04;100121.88;;;32.51;34.90
28428;BME280;15662;49.128;8.520;2022-08-04T07:49:32;100121.97;;;32.43;35.53
28428;BME280;15662;49.128;8.520;2022-08-04T07:52:21;100125.19;;;32.61;34.95
28428;BME280;15662;49.128;8.520;2022-08-04T07:54:50;100119.03;;;32.74;34.11
28428;BME280;15662;49.128;8.520;2022-08-04T07:57:19;100120.84;;;32.82;33.65
28428;BME280;15662;49.128;8.520;2022-08-04T08:00:09;100123.03;;;32.86;33.75
28428;BME280;15662;49.128;8.520;2022-08-04T08:02:38;100116.50;;;32.73;34.79
28428;BME280;15662;49.128;8.520;2022-08-04T08:05:09;100120.06;;;32.88;33.67
28428;BME280;15662;49.128;8.520;2022-08-04T08:07:37;100117.28;;;32.96;33.33
28428;BME280;15662;49.128;8.520;2022-08-04T08:10:21;100112.50;;;33.05;33.16
28428;BME280;15662;49.128;8.520;2022-08-04T08:12:51;100119.44;;;33.16;33.16
28428;BME280;15662;49.128;8.520;2022-08-04T08:15:20;100113.81;;;33.24;32.51
28428;BME280;15662;49.128;8.520;2022-08-04T08:17:47;100118.34;;;33.31;32.73
28428;BME280;15662;49.128;8.520;2022-08-04T08:20:31;100114.81;;;33.37;32.46
28428;BME280;15662;49.128;8.520;2022-08-04T08:23:01;100104.59;;;33.46;32.29
28428;BME280;15662;49.128;8.520;2022-08-04T08:25:31;100116.97;;;33.57;32.29
28428;BME280;15662;49.128;8.520;2022-08-04T08:28:03;100115.97;;;33.64;32.06
28428;BME280;15662;49.128;8.520;2022-08-04T08:30:35;100115.84;;;33.73;31.65
28428;BME280;15662;49.128;8.520;2022-08-04T08:33:06;100115.91;;;33.79;32.02
28428;BME280;15662;49.128;8.520;2022-08-04T08:38:52;100115.91;;;33.94;31.80
28428;BME280;15662;49.128;8.520;2022-08-04T08:48:06;100117.69;;;34.08;31.30
28428;BME280;15662;49.128;8.520;2022-08-04T09:03:04;100113.91;;;34.37;30.05
28428;BME280;15662;49.128;8.520;2022-08-04T09:15:14;100106.91;;;34.63;29.86
28428;BME280;15662;49.128;8.520;2022-08-04T09:17:51;100104.47;;;34.47;30.88
28428;BME280;15662;49.128;8.520;2022-08-04T09:27:25;100098.34;;;34.86;29.46
28428;BME280;15662;49.128;8.520;2022-08-04T09:30:04;100095.50;;;35.01;29.16
28428;BME280;15662;49.128;8.520;2022-08-04T09:38:45;100115.94;;;35.26;28.76
28428;BME280;15662;49.128;8.520;2022-08-04T09:50:39;100101.63;;;35.51;28.23
28428;BME280;15662;49.128;8.520;2022-08-04T10:01:37;100086.63;;;35.80;27.50
28428;BME280;15662;49.128;8.520;2022-08-04T10:04:12;100090.25;;;35.87;27.60
28428;BME280;15662;49.128;8.520;2022-08-04T10:07:08;100085.59;;;35.94;27.34
28428;BME280;15662;49.128;8.520;2022-08-04T10:10:14;100084.75;;;36.00;27.57
28428;BME280;15662;49.128;8.520;2022-08-04T10:16:34;100080.94;;;36.08;27.28
28428;BME280;15662;49.128;8.520;2022-08-04T10:18:54;100080.06;;;36.14;27.15
28428;BME280;15662;49.128;8.520;2022-08-04T10:21:58;100072.22;;;36.17;27.14
28428;BME280;15662;49.128;8.520;2022-08-04T10:25:21;100077.72;;;36.24;27.19
28428;BME280;15662;49.128;8.520;2022-08-04T10:28:16;100075.63;;;36.26;27.22
28428;BME280;15662;49.128;8.520;2022-08-04T10:30:56;100067.94;;;36.35;26.62
28428;BME280;15662;49.128;8.520;2022-08-04T10:33:44;100057.09;;;36.40;26.30
28428;BME280;15662;49.128;8.520;2022-08-04T10:36:26;100064.59;;;36.46;26.38
28428;BME280;15662;49.128;8.520;2022-08-04T10:39:13;100048.59;;;36.55;26.03
28428;BME280;15662;49.128;8.520;2022-08-04T10:42:23;100059.66;;;36.61;26.23
28428;BME280;15662;49.128;8.520;2022-08-04T10:47:44;100049.41;;;36.75;26.10
28428;BME280;15662;49.128;8.520;2022-08-04T10:50:23;100053.41;;;36.79;26.08
28428;BME280;15662;49.128;8.520;2022-08-04T10:53:06;100050.84;;;36.84;25.59
28428;BME280;15662;49.128;8.520;2022-08-04T10:55:48;100038.94;;;36.84;25.55
28428;BME280;15662;49.128;8.520;2022-08-04T10:58:48;100053.41;;;36.92;25.70
28428;BME280;15662;49.128;8.520;2022-08-04T11:01:39;100047.84;;;36.99;25.49
28428;BME280;15662;49.128;8.520;2022-08-04T11:05:06;100041.88;;;37.02;25.87
28428;BME280;15662;49.128;8.520;2022-08-04T11:07:40;100047.81;;;37.06;25.43
28428;BME280;15662;49.128;8.520;2022-08-04T11:10:12;100046.09;;;37.11;25.37
28428;BME280;15662;49.128;8.520;2022-08-04T11:12:42;100042.03;;;37.14;25.05
28428;BME280;15662;49.128;8.520;2022-08-04T11:15:20;100047.53;;;37.21;25.15
28428;BME280;15662;49.128;8.520;2022-08-04T11:18:12;100036.84;;;37.24;24.91
28428;BME280;15662;49.128;8.520;2022-08-04T11:20:54;100037.28;;;37.28;24.75
28428;BME280;15662;49.128;8.520;2022-08-04T11:23:29;100034.91;;;37.31;24.80
28428;BME280;15662;49.128;8.520;2022-08-04T11:26:20;100027.69;;;37.37;24.36
28428;BME280;15662;49.128;8.520;2022-08-04T11:29:16;100033.63;;;37.40;24.16
28428;BME280;15662;49.128;8.520;2022-08-04T11:31:49;100032.78;;;37.40;24.38
28428;BME280;15662;49.128;8.520;2022-08-04T11:34:24;100031.03;;;37.46;24.25
28428;BME280;15662;49.128;8.520;2022-08-04T11:37:19;100036.28;;;37.54;24.43
28428;BME280;15662;49.128;8.520;2022-08-04T11:39:55;100025.00;;;37.55;23.91
28428;BME280;15662;49.128;8.520;2022-08-04T11:42:32;100026.03;;;37.61;23.84
28428;BME280;15662;49.128;8.520;2022-08-04T11:45:12;100018.50;;;37.68;23.64
28428;BME280;15662;49.128;8.520;2022-08-04T11:47:57;100025.94;;;37.74;23.85
28428;BME280;15662;49.128;8.520;2022-08-04T11:50:58;100029.06;;;37.78;23.79
28428;BME280;15662;49.128;8.520;2022-08-04T11:53:26;100028.88;;;37.79;23.84
28428;BME280;15662;49.128;8.520;2022-08-04T11:56:08;100030.13;;;37.83;23.65
28428;BME280;15662;49.128;8.520;2022-08-04T11:58:39;100022.84;;;37.89;23.13
28428;BME280;15662;49.128;8.520;2022-08-04T12:01:24;100031.94;;;37.96;22.54
28428;BME280;15662;49.128;8.520;2022-08-04T12:04:26;100027.25;;;37.97;22.80
28428;BME280;15662;49.128;8.520;2022-08-04T12:07:16;100018.94;;;37.97;22.35
28428;BME280;15662;49.128;8.520;2022-08-04T12:19:49;100003.06;;;38.10;21.61
28428;BME280;15662;49.128;8.520;2022-08-04T12:22:36;100005.34;;;37.95;22.57
28428;BME280;15662;49.128;8.520;2022-08-04T12:25:46;100001.28;;;38.16;21.66
28428;BME280;15662;49.128;8.520;2022-08-04T12:28:32;99989.94;;;38.24;20.78
28428;BME280;15662;49.128;8.520;2022-08-04T12:31:47;99999.91;;;38.25;20.93
28428;BME280;15662;49.128;8.520;2022-08-04T12:34:33;99992.41;;;38.32;21.04
28428;BME280;15662;49.128;8.520;2022-08-04T12:37:31;99990.03;;;38.36;20.41
28428;BME280;15662;49.128;8.520;2022-08-04T12:40:15;99990.81;;;38.43;20.69
28428;BME280;15662;49.128;8.520;2022-08-04T12:43:12;99989.88;;;38.49;20.10
28428;BME280;15662;49.128;8.520;2022-08-04T12:45:56;99988.81;;;38.50;19.93
28428;BME280;15662;49.128;8.520;2022-08-04T12:48:26;99974.97;;;38.50;20.07
28428;BME280;15662;49.128;8.520;2022-08-04T12:50:57;99982.19;;;38.51;20.12
28428;BME280;15662;49.128;8.520;2022-08-04T12:53:32;99978.31;;;38.52;20.09
28428;BME280;15662;49.128;8.520;2022-08-04T12:56:26;99976.66;;;38.51;20.27
28428;BME280;15662;49.128;8.520;2022-08-04T12:59:06;99986.56;;;38.59;20.04
28428;BME280;15662;49.128;8.520;2022-08-04T13:01:47;99971.03;;;38.58;20.13
28428;BME280;15662;49.128;8.520;2022-08-04T13:04:37;99973.56;;;38.59;20.55
28428;BME280;15662;49.128;8.520;2022-08-04T13:07:22;99972.63;;;38.65;20.25
28428;BME280;15662;49.128;8.520;2022-08-04T13:09:52;99956.50;;;38.62;20.24
28428;BME280;15662;49.128;8.520;2022-08-04T13:12:24;99960.63;;;38.71;20.28
28428;BME280;15662;49.128;8.520;2022-08-04T13:15:13;99966.97;;;38.79;20.39
28428;BME280;15662;49.128;8.520;2022-08-04T13:18:09;99949.84;;;38.82;20.42
28428;BME280;15662;49.128;8.520;2022-08-04T13:20:43;99949.84;;;38.82;20.43
28428;BME280;15662;49.128;8.520;2022-08-04T13:23:15;99941.69;;;38.87;20.50
28428;BME280;15662;49.128;8.520;2022-08-04T13:25:50;99937.16;;;38.92;20.45
28428;BME280;15662;49.128;8.520;2022-08-04T13:28:44;99938.59;;;38.95;20.18
28428;BME280;15662;49.128;8.520;2022-08-04T13:31:19;99941.03;;;39.03;20.57
28428;BME280;15662;49.128;8.520;2022-08-04T13:33:52;99930.09;;;39.08;19.81
28428;BME280;15662;49.128;8.520;2022-08-04T13:36:26;99918.63;;;39.05;19.55
28428;BME280;15662;49.128;8.520;2022-08-04T13:38:58;99932.16;;;39.13;19.16
28428;BME280;15662;49.128;8.520;2022-08-04T13:41:29;99914.28;;;39.09;18.87
28428;BME280;15662;49.128;8.520;2022-08-04T13:43:59;99917.19;;;39.14;19.12
28428;BME280;15662;49.128;8.520;2022-08-04T13:46:55;99906.97;;;39.14;19.27
28428;BME280;15662;49.128;8.520;2022-08-04T13:49:24;99914.81;;;39.17;19.05
28428;BME280;15662;49.128;8.520;2022-08-04T13:52:13;99898.03;;;39.12;18.90
28428;BME280;15662;49.128;8.520;2022-08-04T13:54:45;99905.41;;;39.18;19.08
28428;BME280;15662;49.128;8.520;2022-08-04T13:57:20;99883.47;;;39.17;18.83
28428;BME280;15662;49.128;8.520;2022-08-04T13:59:59;99898.56;;;39.21;18.83
28428;BME280;15662;49.128;8.520;2022-08-04T14:02:58;99901.94;;;39.23;18.80
28428;BME280;15662;49.128;8.520;2022-08-04T14:05:29;99893.00;;;39.21;19.07
28428;BME280;15662;49.128;8.520;2022-08-04T14:08:24;99888.09;;;39.23;19.11
28428;BME280;15662;49.128;8.520;2022-08-04T14:10:56;99882.31;;;39.25;18.81
28428;BME280;15662;49.128;8.520;2022-08-04T14:13:33;99894.13;;;39.32;19.02
28428;BME280;15662;49.128;8.520;2022-08-04T14:16:19;99884.84;;;39.38;18.72
28428;BME280;15662;49.128;8.520;2022-08-04T14:18:59;99880.53;;;39.42;18.58
28428;BME280;15662;49.128;8.520;2022-08-04T14:21:35;99887.88;;;39.48;18.04
28428;BME280;15662;49.128;8.520;2022-08-04T14:24:04;99887.03;;;39.47;18.00
28428;BME280;15662;49.128;8.520;2022-08-04T14:26:33;99870.75;;;39.51;17.78
28428;BME280;15662;49.128;8.520;2022-08-04T14:29:14;99867.50;;;39.54;17.54
28428;BME280;15662;49.128;8.520;2022-08-04T14:32:03;99871.72;;;39.57;17.55
28428;BME280;15662;49.128;8.520;2022-08-04T14:34:43;99867.50;;;39.54;17.19
28428;BME280;15662;49.128;8.520;2022-08-04T14:37:16;99863.41;;;39.57;17.22
28428;BME280;15662;49.128;8.520;2022-08-04T14:39:51;99862.31;;;39.58;17.16
28428;BME280;15662;49.128;8.520;2022-08-04T14:42:45;99852.31;;;39.57;17.17
28428;BME280;15662;49.128;8.520;2022-08-04T14:45:41;99850.38;;;39.57;17.08
28428;BME280;15662;49.128;8.520;2022-08-04T14:48:22;99857.22;;;39.55;17.09
28428;BME280;15662;49.128;8.520;2022-08-04T14:50:51;99842.63;;;39.59;16.63
28428;BME280;15662;49.128;8.520;2022-08-04T14:53:25;99853.03;;;39.64;16.97
28428;BME280;15662;49.128;8.520;2022-08-04T14:55:56;99841.56;;;39.60;16.82
28428;BME280;15662;49.128;8.520;2022-08-04T14:58:32;99844.38;;;39.72;16.51
28428;BME280;15662;49.128;8.520;2022-08-04T15:01:09;99851.34;;;39.75;16.81
28428;BME280;15662;49.128;8.520;2022-08-04T15:03:44;99850.63;;;39.79;16.94
28428;BME280;15662;49.128;8.520;2022-08-04T15:06:25;99842.91;;;39.81;16.66
28428;BME280;15662;49.128;8.520;2022-08-04T15:08:59;99849.28;;;39.82;16.40
28428;BME280;15662;49.128;8.520;2022-08-04T15:11:29;99847.09;;;39.84;16.21
28428;BME280;15662;49.128;8.520;2022-08-04T15:13:58;99845.69;;;39.81;16.37
28428;BME280;15662;49.128;8.520;2022-08-04T15:16:30;99840.97;;;39.82;16.10
28428;BME280;15662;49.128;8.520;2022-08-04T15:19:00;99830.34;;;39.79;15.77
28428;BME280;15662;49.128;8.520;2022-08-04T15:21:30;99837.34;;;39.81;16.01
28428;BME280;15662;49.128;8.520;2022-08-04T15:23:59;99828.78;;;39.83;15.55
28428;BME280;15662;49.128;8.520;2022-08-04T15:27:06;99829.38;;;39.85;15.67
28428;BME280;15662;49.128;8.520;2022-08-04T15:29:44;99836.97;;;39.89;15.05
28428;BME280;15662;49.128;8.520;2022-08-04T15:32:32;99832.88;;;39.92;14.93
28428;BME280;15662;49.128;8.520;2022-08-04T15:35:17;99829.59;;;39.95;15.03
28428;BME280;15662;49.128;8.520;2022-08-04T15:38:15;99835.66;;;39.92;15.05
28428;BME280;15662;49.128;8.520;2022-08-04T15:41:20;99832.03;;;39.91;14.46
28428;BME280;15662;49.128;8.520;2022-08-04T15:44:27;99822.88;;;39.91;14.76
28428;BME280;15662;49.128;8.520;2022-08-04T15:49:31;99829.47;;;39.90;14.51
28428;BME280;15662;49.128;8.520;2022-08-04T15:52:06;99823.44;;;39.93;14.39
28428;BME280;15662;49.128;8.520;2022-08-04T15:54:39;99818.16;;;39.91;13.78
28428;BME280;15662;49.128;8.520;2022-08-04T15:58:10;99816.09;;;39.87;14.03
28428;BME280;15662;49.128;8.520;2022-08-04T16:09:02;99805.38;;;39.90;13.31
28428;BME280;15662;49.128;8.520;2022-08-04T16:22:39;99796.28;;;39.95;13.07
28428;BME280;15662;49.128;8.520;2022-08-04T16:25:08;99790.41;;;39.91;13.10
28428;BME280;15662;49.128;8.520;2022-08-04T16:27:43;99791.00;;;39.93;13.03
28428;BME280;15662;49.128;8.520;2022-08-04T16:30:13;99779.88;;;39.93;12.76
28428;BME280;15662;49.128;8.520;2022-08-04T16:32:46;99782.66;;;39.93;12.76
28428;BME280;15662;49.128;8.520;2022-08-04T16:35:26;99786.06;;;39.95;12.30
28428;BME280;15662;49.128;8.520;2022-08-04T16:38:15;99777.38;;;39.92;12.69
28428;BME280;15662;49.128;8.520;2022-08-04T16:40:54;99777.28;;;39.87;12.88
28428;BME280;15662;49.128;8.520;2022-08-04T16:43:28;99768.59;;;39.83;12.65
28428;BME280;15662;49.128;8.520;2022-08-04T16:45:59;99777.50;;;39.85;12.62
28428;BME280;15662;49.128;8.520;2022-08-04T16:49:04;99779.19;;;39.86;12.26
28428;BME280;15662;49.128;8.520;2022-08-04T16:51:43;99765.97;;;39.77;12.46
28428;BME280;15662;49.128;8.520;2022-08-04T16:54:12;99770.16;;;39.79;12.51
28428;BME280;15662;49.128;8.520;2022-08-04T16:56:41;99765.72;;;39.78;12.19
28428;BME280;15662;49.128;8.520;2022-08-04T16:59:11;99760.41;;;39.77;12.00
28428;BME280;15662;49.128;8.520;2022-08-04T17:01:47;99772.59;;;39.76;12.17
28428;BME280;15662;49.128;8.520;2022-08-04T17:04:16;99764.66;;;39.67;12.04
28428;BME280;15662;49.128;8.520;2022-08-04T17:06:45;99769.59;;;39.65;12.16
28428;BME280;15662;49.128;8.520;2022-08-04T17:09:17;99764.75;;;39.61;12.21
28428;BME280;15662;49.128;8.520;2022-08-04T17:11:47;99761.84;;;39.56;12.13
28428;BME280;15662;49.128;8.520;2022-08-04T17:14:25;99763.09;;;39.48;12.35
28428;BME280;15662;49.128;8.520;2022-08-04T17:17:00;99761.28;;;39.42;12.95
28428;BME280;15662;49.128;8.520;2022-08-04T17:19:29;99772.75;;;39.34;13.36
28428;BME280;15662;49.128;8.520;2022-08-04T17:22:06;99767.09;;;39.29;13.41
28428;BME280;15662;49.128;8.520;2022-08-04T17:24:38;99767.44;;;39.20;13.80
28428;BME280;15662;49.128;8.520;2022-08-04T17:27:10;99757.19;;;39.09;14.06
28428;BME280;15662;49.128;8.520;2022-08-04T17:29:59;99766.47;;;39.03;14.52
28428;BME280;15662;49.128;8.520;2022-08-04T17:32:28;99758.25;;;38.96;15.04
28428;BME280;15662;49.128;8.520;2022-08-04T17:34:59;99761.38;;;38.88;15.45
28428;BME280;15662;49.128;8.520;2022-08-04T17:37:31;99762.56;;;38.81;15.86
28428;BME280;15662;49.128;8.520;2022-08-04T17:40:18;99761.19;;;38.71;16.55
28428;BME280;15662;49.128;8.520;2022-08-04T17:43:05;99759.38;;;38.65;16.40
28428;BME280;15662;49.128;8.520;2022-08-04T17:51:58;99746.56;;;38.41;17.51
28428;BME280;15662;49.128;8.520;2022-08-04T17:54:39;99761.59;;;38.33;17.61
28428;BME280;15662;49.128;8.520;2022-08-04T17:57:21;99763.16;;;38.29;17.86
28428;BME280;15662;49.128;8.520;2022-08-04T17:59:57;99755.38;;;38.19;18.53
28428;BME280;15662;49.128;8.520;2022-08-04T18:02:35;99756.78;;;38.10;18.87